createdAt,value
2023-05-06T00:00:07.089Z,6.9538
2023-05-06T00:01:10.139Z,7.0538
2023-05-06T00:02:12.999Z,6.4154
2023-05-06T00:03:15.982Z,7.0846
2023-05-06T00:04:18.934Z,6.4538
2023-05-06T00:05:21.968Z,6.6000
2023-05-06T00:06:24.818Z,7.4462
2023-05-06T00:07:27.777Z,7.2000
2023-05-06T00:08:30.703Z,7.9923
2023-05-06T00:09:33.695Z,6.9385
2023-05-06T00:10:36.606Z,6.1923
2023-05-06T00:11:39.573Z,5.8308
2023-05-06T00:12:42.506Z,6.2385
2023-05-06T00:13:45.469Z,7.3077
2023-05-06T00:14:48.495Z,7.0692
2023-05-06T00:15:51.424Z,7.1231
2023-05-06T00:16:54.346Z,7.7692
2023-05-06T00:17:57.484Z,9.6462
2023-05-06T00:19:00.387Z,7.2462
2023-05-06T00:20:03.204Z,7.5231
2023-05-06T00:21:06.165Z,7.5231
2023-05-06T00:22:09.089Z,6.6615
2023-05-06T00:23:12.053Z,6.7769
2023-05-06T00:24:15.037Z,7.2615
2023-05-06T00:25:17.969Z,7.8538
2023-05-06T00:26:20.896Z,7.6692
2023-05-06T00:27:23.845Z,7.5846
2023-05-06T00:28:26.800Z,8.4692
2023-05-06T00:29:29.742Z,7.0769
2023-05-06T00:30:32.736Z,7.1308
2023-05-06T00:31:35.771Z,7.9615
2023-05-06T00:32:38.659Z,7.0000
2023-05-06T00:33:41.584Z,6.6308
2023-05-06T00:34:44.661Z,6.8462
2023-05-06T00:35:47.546Z,6.8769
2023-05-06T00:36:50.410Z,7.8923
2023-05-06T00:37:53.386Z,7.3923
2023-05-06T00:38:56.376Z,6.5615
2023-05-06T00:39:59.346Z,6.7692
2023-05-06T00:41:02.229Z,8.1000
2023-05-06T00:42:05.176Z,7.2308
2023-05-06T00:43:08.126Z,8.2923
2023-05-06T00:44:11.077Z,8.2923
2023-05-06T00:45:14.024Z,7.4385
2023-05-06T00:46:17.070Z,7.4385
2023-05-06T00:47:19.947Z,8.7538
2023-05-06T00:48:23.015Z,7.7692
2023-05-06T00:49:25.820Z,8.2000
2023-05-06T00:50:28.785Z,7.5154
2023-05-06T00:51:31.750Z,8.0077
2023-05-06T00:52:34.714Z,6.6462
2023-05-06T00:53:37.649Z,6.8846
2023-05-06T00:54:40.604Z,7.3769
2023-05-06T00:55:43.605Z,6.3615
2023-05-06T00:56:46.533Z,6.8000
2023-05-06T00:57:49.447Z,6.6462
2023-05-06T00:58:52.393Z,6.7615
2023-05-06T00:59:55.349Z,7.9615
2023-05-06T01:00:58.303Z,7.6615
2023-05-06T01:02:01.376Z,7.5462
2023-05-06T01:03:04.335Z,6.9154
2023-05-06T01:04:07.196Z,7.5385
2023-05-06T01:05:10.379Z,8.2308
2023-05-06T01:06:13.052Z,7.1231
2023-05-06T01:07:16.013Z,7.5462
2023-05-06T01:08:19.168Z,7.2846
2023-05-06T01:09:21.936Z,7.6923
2023-05-06T01:10:24.879Z,7.0462
2023-05-06T01:11:27.820Z,9.2308
2023-05-06T01:12:30.766Z,8.0385
2023-05-06T01:13:33.721Z,8.2154
2023-05-06T01:14:36.660Z,8.0154
2023-05-06T01:15:39.621Z,6.4692
2023-05-06T01:16:42.617Z,6.8846
2023-05-06T01:17:45.521Z,7.2923
2023-05-06T01:18:48.450Z,7.3385
2023-05-06T01:19:51.446Z,6.7077
2023-05-06T01:20:54.382Z,6.9769
2023-05-06T01:21:57.364Z,7.2385
2023-05-06T01:23:00.305Z,8.3615
2023-05-06T01:24:03.206Z,6.4923
2023-05-06T01:25:06.203Z,7.0923
2023-05-06T01:26:09.099Z,6.1923
2023-05-06T01:27:12.060Z,6.7615
2023-05-06T01:28:15.005Z,5.9923
2023-05-06T01:29:17.909Z,6.1462
2023-05-06T01:30:20.859Z,6.5692
2023-05-06T01:31:23.837Z,5.7769
2023-05-06T01:32:26.768Z,6.1308
2023-05-06T01:33:29.691Z,5.6846
2023-05-06T01:34:32.644Z,5.1692
2023-05-06T01:35:35.591Z,5.8077
2023-05-06T01:36:38.531Z,6.9923
2023-05-06T01:37:41.581Z,7.0692
2023-05-06T01:38:44.413Z,6.5615
2023-05-06T01:39:47.392Z,6.9769
2023-05-06T01:40:50.304Z,7.4231
2023-05-06T01:41:53.253Z,7.3231
2023-05-06T01:42:56.207Z,6.6000
2023-05-06T01:43:59.156Z,6.6615
2023-05-06T01:45:02.137Z,7.2615
2023-05-06T01:46:05.044Z,6.5692
2023-05-06T01:47:07.998Z,7.5615
2023-05-06T01:48:10.930Z,7.0385
2023-05-06T01:49:13.869Z,6.2077
2023-05-06T01:50:16.844Z,7.3769
2023-05-06T01:51:19.764Z,6.9231
2023-05-06T01:52:22.704Z,7.4692
2023-05-06T01:53:25.706Z,6.4231
2023-05-06T01:54:28.565Z,5.9923
2023-05-06T01:55:31.583Z,6.5538
2023-05-06T01:56:34.453Z,5.5308
2023-05-06T01:57:37.403Z,5.7462
2023-05-06T01:58:40.358Z,5.5923
2023-05-06T01:59:43.288Z,5.8846
2023-05-06T02:00:46.252Z,6.0231
2023-05-06T02:01:49.209Z,5.9077
2023-05-06T02:02:52.241Z,5.7231
2023-05-06T02:03:55.120Z,7.4846
2023-05-06T02:04:58.038Z,7.3077
2023-05-06T02:06:01.033Z,5.9615
2023-05-06T02:07:03.888Z,6.0769
2023-05-06T02:08:06.822Z,6.7231
2023-05-06T02:09:09.836Z,6.1077
2023-05-06T02:10:12.744Z,5.8538
2023-05-06T02:11:15.661Z,7.7308
2023-05-06T02:12:18.628Z,6.3923
2023-05-06T02:13:21.600Z,4.6846
2023-05-06T02:14:24.498Z,7.1154
2023-05-06T02:15:27.565Z,6.4846
2023-05-06T02:16:30.394Z,6.7077
2023-05-06T02:17:33.381Z,5.6154
2023-05-06T02:18:36.312Z,6.2462
2023-05-06T02:19:39.204Z,5.3154
2023-05-06T02:20:42.165Z,4.8846
2023-05-06T02:21:45.101Z,4.5769
2023-05-06T02:22:48.111Z,5.9000
2023-05-06T02:23:51.041Z,5.1154
2023-05-06T02:24:53.993Z,5.1231
2023-05-06T02:25:56.864Z,5.4385
2023-05-06T02:26:59.815Z,6.6692
2023-05-06T02:28:02.762Z,6.4231
2023-05-06T02:29:05.711Z,5.3923
2023-05-06T02:30:08.648Z,6.4077
2023-05-06T02:31:11.620Z,5.1769
2023-05-06T02:32:14.576Z,6.5615
2023-05-06T02:33:17.510Z,5.5462
2023-05-06T02:34:20.439Z,6.7615
2023-05-06T02:35:23.397Z,6.6846
2023-05-06T02:36:26.344Z,5.7154
2023-05-06T02:37:29.262Z,6.8154
2023-05-06T02:38:32.216Z,6.1692
2023-05-06T02:39:35.214Z,6.1385
2023-05-06T02:40:38.157Z,6.8692
2023-05-06T02:41:41.073Z,7.5000
2023-05-06T02:42:44.031Z,6.6000
2023-05-06T02:43:46.933Z,6.3923
2023-05-06T02:44:49.871Z,7.0615
2023-05-06T02:45:52.828Z,7.1538
2023-05-06T02:46:55.764Z,6.8923
2023-05-06T02:47:58.762Z,7.4615
2023-05-06T02:49:01.644Z,8.1615
2023-05-06T02:50:04.591Z,7.3462
2023-05-06T02:51:07.562Z,7.4308
2023-05-06T02:52:10.475Z,6.9692
2023-05-06T02:53:13.453Z,7.0000
2023-05-06T02:54:16.345Z,6.3846
2023-05-06T02:55:19.305Z,6.9077
2023-05-06T02:56:22.314Z,6.6615
2023-05-06T02:57:25.178Z,6.8154
2023-05-06T02:58:28.151Z,7.2308
2023-05-06T02:59:31.071Z,8.0077
2023-05-06T03:00:34.120Z,7.2615
2023-05-06T03:01:37.104Z,7.0231
2023-05-06T03:02:39.913Z,6.9000
2023-05-06T03:03:42.834Z,8.0385
2023-05-06T03:04:45.769Z,7.4846
2023-05-06T03:05:48.730Z,7.0308
2023-05-06T03:06:51.660Z,6.7308
2023-05-06T03:07:54.618Z,6.6615
2023-05-06T03:08:57.538Z,5.9154
2023-05-06T03:10:00.519Z,6.6385
2023-05-06T03:11:03.437Z,7.0923
2023-05-06T03:12:06.394Z,6.5538
2023-05-06T03:13:09.560Z,6.9692
2023-05-06T03:14:12.262Z,7.0615
2023-05-06T03:15:15.257Z,6.7154
2023-05-06T03:16:18.185Z,6.6308
2023-05-06T03:17:21.087Z,6.9538
2023-05-06T03:18:24.052Z,6.3538
2023-05-06T03:19:26.958Z,6.7462
2023-05-06T03:20:29.910Z,7.2769
2023-05-06T03:21:32.873Z,7.7154
2023-05-06T03:22:35.871Z,7.1385
2023-05-06T03:23:38.753Z,6.6231
2023-05-06T03:24:41.689Z,6.5154
2023-05-06T03:25:44.629Z,7.4154
2023-05-06T03:26:47.584Z,8.1923
2023-05-06T03:27:50.525Z,8.9000
2023-05-06T03:28:53.497Z,9.3462
2023-05-06T03:29:56.396Z,7.2231
2023-05-06T03:30:59.430Z,7.8231
2023-05-06T03:32:02.383Z,6.8769
2023-05-06T03:33:05.403Z,6.7077
2023-05-06T03:34:08.249Z,6.4615
2023-05-06T03:35:11.498Z,7.3154
2023-05-06T03:36:14.141Z,6.1385
2023-05-06T03:37:17.071Z,5.9077
2023-05-06T03:38:20.018Z,7.2846
2023-05-06T03:39:22.989Z,6.6615
2023-05-06T03:40:25.890Z,6.6923
2023-05-06T03:41:28.855Z,7.8308
2023-05-06T03:42:31.784Z,7.8308
2023-05-06T03:43:34.850Z,7.3154
2023-05-06T03:44:37.677Z,7.6692
2023-05-06T03:45:40.606Z,7.1308
2023-05-06T03:46:43.667Z,8.1538
2023-05-06T03:47:46.826Z,7.4846
2023-05-06T03:48:49.416Z,7.4308
2023-05-06T03:49:52.391Z,7.8000
2023-05-06T03:50:55.293Z,7.4308
2023-05-06T03:51:58.242Z,7.3231
2023-05-06T03:53:01.178Z,7.0462
2023-05-06T03:54:04.113Z,7.6462
2023-05-06T03:55:07.230Z,8.0615
2023-05-06T03:56:10.017Z,7.4077
2023-05-06T03:57:12.940Z,7.9154
2023-05-06T03:58:15.878Z,8.6077
2023-05-06T03:59:18.893Z,9.1462
2023-05-06T04:00:21.786Z,8.8462
2023-05-06T04:01:24.700Z,8.0385
2023-05-06T04:02:27.705Z,7.5077
2023-05-06T04:03:30.692Z,8.5538
2023-05-06T04:04:33.529Z,9.0846
2023-05-06T04:05:36.632Z,8.6615
2023-05-06T04:06:39.434Z,7.7538
2023-05-06T04:07:42.379Z,7.9000
2023-05-06T04:08:45.344Z,8.4615
2023-05-06T04:09:48.238Z,7.2231
2023-05-06T04:10:51.245Z,7.7923
2023-05-06T04:11:54.112Z,8.2846
2023-05-06T04:12:57.109Z,8.3538
2023-05-06T04:14:00.081Z,7.2923
2023-05-06T04:15:03.030Z,7.2692
2023-05-06T04:16:05.933Z,7.4692
2023-05-06T04:17:08.870Z,8.4308
2023-05-06T04:18:11.798Z,8.0077
2023-05-06T04:19:14.884Z,7.5538
2023-05-06T04:20:17.682Z,7.2077
2023-05-06T04:21:20.654Z,8.7769
2023-05-06T04:22:23.595Z,9.0385
2023-05-06T04:23:26.572Z,9.4231
2023-05-06T04:24:29.469Z,9.3231
2023-05-06T04:25:32.408Z,9.8385
2023-05-06T04:26:35.332Z,8.9538
2023-05-06T04:27:38.296Z,9.1000
2023-05-06T04:28:41.226Z,8.9308
2023-05-06T04:29:44.213Z,8.5154
2023-05-06T04:30:47.182Z,8.9846
2023-05-06T04:31:50.121Z,8.2231
2023-05-06T04:32:53.047Z,8.2462
2023-05-06T04:33:55.939Z,8.0769
2023-05-06T04:34:58.900Z,7.9077
2023-05-06T04:36:01.882Z,8.9692
2023-05-06T04:37:04.798Z,9.4769
2023-05-06T04:38:07.735Z,8.6154
2023-05-06T04:39:10.683Z,7.5538
2023-05-06T04:40:13.730Z,8.4231
2023-05-06T04:41:16.578Z,6.9923
2023-05-06T04:42:19.507Z,6.2077
2023-05-06T04:43:22.470Z,6.0923
2023-05-06T04:44:25.415Z,7.3615
2023-05-06T04:45:28.386Z,7.6385
2023-05-06T04:46:31.426Z,7.2154
2023-05-06T04:47:34.300Z,6.8923
2023-05-06T04:48:37.193Z,7.1615
2023-05-06T04:49:40.192Z,7.8308
2023-05-06T04:50:43.089Z,7.5308
2023-05-06T04:51:46.045Z,6.7615
2023-05-06T04:52:48.963Z,6.3077
2023-05-06T04:53:51.909Z,6.7769
2023-05-06T04:54:54.889Z,7.5538
2023-05-06T04:55:57.800Z,7.9154
2023-05-06T04:57:00.776Z,8.8846
2023-05-06T04:58:03.703Z,8.0923
2023-05-06T04:59:06.627Z,8.2154
2023-05-06T05:00:09.783Z,7.8077
2023-05-06T05:01:12.554Z,8.0615
2023-05-06T05:02:15.580Z,6.5846
2023-05-06T05:03:18.452Z,6.0000
2023-05-06T05:04:21.367Z,6.4692
2023-05-06T05:05:24.313Z,6.6000
2023-05-06T05:06:27.250Z,6.8154
2023-05-06T05:07:30.190Z,7.2846
2023-05-06T05:08:33.137Z,7.3308
2023-05-06T05:09:36.102Z,6.4385
2023-05-06T05:10:39.057Z,7.1538
2023-05-06T05:11:41.943Z,8.1308
2023-05-06T05:12:44.902Z,7.9846
2023-05-06T05:13:47.836Z,8.8308
2023-05-06T05:14:50.770Z,7.6231
2023-05-06T05:15:53.754Z,7.7308
2023-05-06T05:16:56.699Z,7.7538
2023-05-06T05:17:59.676Z,7.1000
2023-05-06T05:19:03.727Z,7.6923
2023-05-06T05:20:05.496Z,7.6385
2023-05-06T05:21:08.478Z,7.9846
2023-05-06T05:22:11.391Z,7.8462
2023-05-06T05:23:14.340Z,9.1385
2023-05-06T05:24:17.321Z,7.9846
2023-05-06T05:25:20.225Z,7.9154
2023-05-06T05:26:23.212Z,9.1538
2023-05-06T05:27:26.103Z,9.7692
2023-05-06T05:28:29.038Z,8.6462
2023-05-06T05:29:32.050Z,8.3692
2023-05-06T05:30:34.943Z,8.7154
2023-05-06T05:31:37.965Z,9.1846
2023-05-06T05:32:40.881Z,8.2923
2023-05-06T05:33:43.831Z,8.8846
2023-05-06T05:34:46.692Z,9.1154
2023-05-06T05:35:49.674Z,7.2769
2023-05-06T05:36:52.571Z,8.2154
2023-05-06T05:37:55.518Z,8.1077
2023-05-06T05:38:58.466Z,8.8538
2023-05-06T05:40:01.404Z,8.7000
2023-05-06T05:41:04.428Z,7.8462
2023-05-06T05:42:07.291Z,7.9846
2023-05-06T05:43:10.237Z,8.9077
2023-05-06T05:44:13.171Z,8.6385
2023-05-06T05:45:16.151Z,8.3846
2023-05-06T05:46:19.113Z,8.4077
2023-05-06T05:47:21.997Z,7.9615
2023-05-06T05:48:24.965Z,8.1923
2023-05-06T05:49:27.998Z,8.2077
2023-05-06T05:50:30.863Z,8.1538
2023-05-06T05:51:33.772Z,7.7923
2023-05-06T05:52:36.737Z,8.2077
2023-05-06T05:53:39.703Z,8.0000
2023-05-06T05:54:42.605Z,8.4615
2023-05-06T05:55:45.530Z,8.2077
2023-05-06T05:56:48.501Z,7.6077
2023-05-06T05:57:51.431Z,8.4000
2023-05-06T05:58:54.415Z,7.9615
2023-05-06T05:59:57.311Z,8.6462
2023-05-06T06:01:00.266Z,8.6615
2023-05-06T06:02:03.213Z,7.9538
2023-05-06T06:03:06.460Z,7.4615
2023-05-06T06:04:09.142Z,7.8846
2023-05-06T06:05:12.205Z,7.5769
2023-05-06T06:06:14.985Z,8.2231
2023-05-06T06:07:17.936Z,8.3308
2023-05-06T06:08:20.860Z,7.3000
2023-05-06T06:09:23.814Z,7.2462
2023-05-06T06:10:26.850Z,7.8769
2023-05-06T06:11:29.713Z,7.5692
2023-05-06T06:12:32.678Z,7.1538
2023-05-06T06:13:35.592Z,7.0846
2023-05-06T06:14:38.545Z,6.7538
2023-05-06T06:15:41.473Z,7.1846
2023-05-06T06:16:44.452Z,6.4846
2023-05-06T06:17:47.388Z,6.8231
2023-05-06T06:18:50.298Z,7.6692
2023-05-06T06:19:53.248Z,6.4231
2023-05-06T06:20:56.277Z,6.3308
2023-05-06T06:21:59.158Z,6.4308
2023-05-06T06:23:02.104Z,7.2308
2023-05-06T06:24:05.057Z,6.9077
2023-05-06T06:25:08.126Z,6.7615
2023-05-06T06:26:12.318Z,6.4077
2023-05-06T06:27:13.888Z,6.3231
2023-05-06T06:28:16.822Z,5.3231
2023-05-06T06:29:19.759Z,5.6385
2023-05-06T06:30:22.709Z,5.5769
2023-05-06T06:31:25.685Z,6.7538
2023-05-06T06:32:28.659Z,5.9077
2023-05-06T06:33:31.593Z,5.9385
2023-05-06T06:34:34.511Z,5.6308
2023-05-06T06:35:37.434Z,5.6538
2023-05-06T06:36:40.465Z,5.3077
2023-05-06T06:37:43.323Z,6.0385
2023-05-06T06:38:46.311Z,6.3385
2023-05-06T06:39:49.304Z,4.9538
2023-05-06T06:40:52.188Z,5.8308
2023-05-06T06:41:55.199Z,5.6231
2023-05-06T06:42:58.055Z,4.8154
2023-05-06T06:44:01.042Z,4.4846
2023-05-06T06:45:03.965Z,5.3615
2023-05-06T06:46:06.891Z,6.6385
2023-05-06T06:47:09.858Z,4.8231
2023-05-06T06:48:12.814Z,5.8231
2023-05-06T06:49:15.708Z,4.9385
2023-05-06T06:50:18.696Z,4.3615
2023-05-06T06:51:21.603Z,5.1154
2023-05-06T06:52:24.646Z,4.6692
2023-05-06T06:53:27.480Z,5.3000
2023-05-06T06:54:30.427Z,3.9231
2023-05-06T06:55:33.437Z,4.7615
2023-05-06T06:56:36.427Z,4.7769
2023-05-06T06:57:39.325Z,4.6231
2023-05-06T06:58:42.202Z,4.3231
2023-05-06T06:59:45.167Z,4.6077
2023-05-06T07:00:48.144Z,4.4385
2023-05-06T07:01:51.057Z,4.4154
2023-05-06T07:02:54.063Z,4.7692
2023-05-06T07:03:56.963Z,6.0308
2023-05-06T07:04:59.905Z,4.6000
2023-05-06T07:06:02.843Z,4.9692
2023-05-06T07:07:05.748Z,5.2231
2023-05-06T07:08:08.760Z,5.6077
2023-05-06T07:09:11.702Z,6.6000
2023-05-06T07:10:14.585Z,5.9231
2023-05-06T07:11:17.554Z,5.6462
2023-05-06T07:12:20.473Z,5.7846
2023-05-06T07:13:23.547Z,5.7154
2023-05-06T07:14:26.348Z,5.3077
2023-05-06T07:15:29.333Z,6.0077
2023-05-06T07:16:32.254Z,5.6462
2023-05-06T07:17:35.235Z,5.9615
2023-05-06T07:18:38.147Z,5.0231
2023-05-06T07:19:41.106Z,5.8231
2023-05-06T07:20:44.036Z,6.0538
2023-05-06T07:21:47.030Z,5.0846
2023-05-06T07:22:49.960Z,5.2000
2023-05-06T07:23:53.064Z,5.7769
2023-05-06T07:24:55.830Z,6.2692
2023-05-06T07:25:58.768Z,5.3692
2023-05-06T07:27:01.751Z,5.1538
2023-05-06T07:28:04.679Z,4.9308
2023-05-06T07:29:07.645Z,7.6154
2023-05-06T07:30:10.609Z,5.3846
2023-05-06T07:31:13.569Z,4.5846
2023-05-06T07:32:16.476Z,4.4000
2023-05-06T07:33:19.467Z,4.3385
2023-05-06T07:34:22.386Z,4.0846
2023-05-06T07:35:25.311Z,5.0462
2023-05-06T07:36:28.363Z,4.0769
2023-05-06T07:37:31.239Z,3.8154
2023-05-06T07:38:34.296Z,4.7615
2023-05-06T07:39:37.247Z,4.3308
2023-05-06T07:40:40.151Z,4.4692
2023-05-06T07:41:43.100Z,4.1231
2023-05-06T07:42:46.031Z,2.9538
2023-05-06T07:43:49.031Z,3.8385
2023-05-06T07:44:51.971Z,4.2231
2023-05-06T07:45:54.919Z,4.1077
2023-05-06T07:46:58.234Z,3.6000
2023-05-06T07:48:00.858Z,3.5385
2023-05-06T07:49:03.929Z,5.1846
2023-05-06T07:50:06.748Z,4.5000
2023-05-06T07:51:09.642Z,6.8077
2023-05-06T07:52:12.653Z,6.7462
2023-05-06T07:53:15.535Z,4.1769
2023-05-06T07:54:18.503Z,3.5769
2023-05-06T07:55:21.512Z,4.3154
2023-05-06T07:56:24.419Z,3.7077
2023-05-06T07:57:27.394Z,3.8692
2023-05-06T07:58:30.441Z,4.9000
2023-05-06T07:59:33.295Z,4.2154
2023-05-06T08:00:36.195Z,4.0385
2023-05-06T08:01:39.176Z,4.1538
2023-05-06T08:02:42.291Z,4.2692
2023-05-06T08:03:45.198Z,5.1846
2023-05-06T08:04:49.476Z,4.1462
2023-05-06T08:05:50.911Z,4.4846
2023-05-06T08:06:53.870Z,4.1692
2023-05-06T08:07:56.827Z,4.6000
2023-05-06T08:08:59.745Z,4.1538
2023-05-06T08:10:02.699Z,4.3077
2023-05-06T08:11:05.704Z,3.6692
2023-05-06T08:12:08.617Z,3.8692
2023-05-06T08:13:11.569Z,4.0769
2023-05-06T08:14:14.464Z,4.3231
2023-05-06T08:15:17.457Z,3.7000
2023-05-06T08:16:20.923Z,3.9615
2023-05-06T08:17:23.389Z,4.1462
2023-05-06T08:18:26.430Z,3.7231
2023-05-06T08:19:29.193Z,3.8154
2023-05-06T08:20:32.152Z,4.9000
2023-05-06T08:21:35.112Z,3.4077
2023-05-06T08:22:38.072Z,4.7000
2023-05-06T08:23:41.004Z,3.6385
2023-05-06T08:24:43.937Z,3.8231
2023-05-06T08:25:46.909Z,3.5846
2023-05-06T08:26:49.885Z,3.8769
2023-05-06T08:27:52.772Z,3.9923
2023-05-06T08:28:55.714Z,3.6385
2023-05-06T08:29:58.682Z,3.2077
2023-05-06T08:31:01.611Z,3.5692
2023-05-06T08:32:04.616Z,3.5462
2023-05-06T08:33:07.594Z,3.7231
2023-05-06T08:34:10.530Z,3.6462
2023-05-06T08:35:13.666Z,3.7923
2023-05-06T08:36:16.373Z,4.0846
2023-05-06T08:37:19.338Z,4.1923
2023-05-06T08:38:22.289Z,3.4615
2023-05-06T08:39:25.291Z,3.5615
2023-05-06T08:40:28.204Z,4.8154
2023-05-06T08:41:31.243Z,3.5462
2023-05-06T08:42:34.202Z,3.6385
2023-05-06T08:43:37.062Z,3.5077
2023-05-06T08:44:39.996Z,4.1231
2023-05-06T08:45:43.061Z,3.4923
2023-05-06T08:46:45.946Z,4.3385
2023-05-06T08:47:48.969Z,4.2462
2023-05-06T08:48:51.839Z,4.0154
2023-05-06T08:49:54.837Z,3.7923
2023-05-06T08:50:57.755Z,3.7538
2023-05-06T08:52:00.765Z,3.1000
2023-05-06T08:53:03.667Z,2.7154
2023-05-06T08:54:06.638Z,3.7385
2023-05-06T08:55:09.938Z,3.5000
2023-05-06T08:56:12.500Z,5.8077
2023-05-06T08:57:15.420Z,3.9615
2023-05-06T08:58:18.466Z,4.3846
2023-05-06T08:59:21.360Z,3.9154
2023-05-06T09:00:24.273Z,4.1923
2023-05-06T09:01:27.297Z,3.3692
2023-05-06T09:02:30.288Z,3.2308
2023-05-06T09:03:33.206Z,3.2000
2023-05-06T09:04:36.106Z,3.0000
2023-05-06T09:05:39.034Z,3.2462
2023-05-06T09:06:41.991Z,3.1846
2023-05-06T09:07:45.002Z,3.1154
2023-05-06T09:08:47.861Z,2.7385
2023-05-06T09:09:50.814Z,2.9769
2023-05-06T09:10:53.954Z,3.1615
2023-05-06T09:11:56.750Z,3.6846
2023-05-06T09:12:59.736Z,3.1538
2023-05-06T09:14:02.665Z,3.7385
2023-05-06T09:15:05.560Z,3.8615
2023-05-06T09:16:08.528Z,2.8692
2023-05-06T09:17:11.552Z,3.4154
2023-05-06T09:18:14.736Z,3.6846
2023-05-06T09:19:17.442Z,3.7615
2023-05-06T09:20:20.341Z,4.3000
2023-05-06T09:21:23.295Z,3.9154
2023-05-06T09:22:26.239Z,3.3692
2023-05-06T09:23:29.202Z,3.3615
2023-05-06T09:24:32.135Z,5.7385
2023-05-06T09:25:35.210Z,3.0462
2023-05-06T09:26:38.071Z,3.7231
2023-05-06T09:27:41.098Z,3.5462
2023-05-06T09:28:43.951Z,2.8308
2023-05-06T09:29:46.987Z,2.8385
2023-05-06T09:30:49.987Z,3.0462
2023-05-06T09:31:52.832Z,2.5846
2023-05-06T09:32:55.856Z,2.5154
2023-05-06T09:33:58.804Z,4.0308
2023-05-06T09:35:01.721Z,4.1923
2023-05-06T09:36:04.641Z,2.7000
2023-05-06T09:37:07.583Z,5.0615
2023-05-06T09:38:10.605Z,2.9538
2023-05-06T09:39:13.616Z,3.3385
2023-05-06T09:40:16.509Z,2.8923
2023-05-06T09:41:19.400Z,4.2462
2023-05-06T09:42:22.446Z,3.0154
2023-05-06T09:43:25.358Z,2.5846
2023-05-06T09:44:28.293Z,2.9769
2023-05-06T09:45:31.296Z,2.9154
2023-05-06T09:46:34.193Z,2.9231
2023-05-06T09:47:37.200Z,2.9077
2023-05-06T09:48:40.081Z,3.3308
2023-05-06T09:49:43.064Z,3.0385
2023-05-06T09:50:45.983Z,3.1308
2023-05-06T09:51:48.973Z,3.2462
2023-05-06T09:52:51.906Z,3.7462
2023-05-06T09:53:54.851Z,2.9769
2023-05-06T09:54:57.803Z,3.4154
2023-05-06T09:56:00.774Z,2.9538
2023-05-06T09:57:03.729Z,2.9231
2023-05-06T09:58:06.666Z,3.0692
2023-05-06T09:59:09.647Z,4.2154
2023-05-06T10:00:12.685Z,2.2000
2023-05-06T10:01:25.204Z,2.5231
2023-05-06T10:02:18.602Z,2.7154
2023-05-06T10:03:21.563Z,2.2538
2023-05-06T10:04:25.594Z,2.2538
2023-05-06T10:05:27.425Z,2.4692
2023-05-06T10:06:30.297Z,2.5615
2023-05-06T10:07:33.312Z,3.8308
2023-05-06T10:08:36.262Z,2.8077
2023-05-06T10:09:39.177Z,3.9538
2023-05-06T10:10:42.291Z,3.0385
2023-05-06T10:11:45.084Z,3.1000
2023-05-06T10:12:48.085Z,3.3231
2023-05-06T10:13:50.985Z,2.5538
2023-05-06T10:14:53.930Z,3.1615
2023-05-06T10:15:56.911Z,3.3077
2023-05-06T10:16:59.893Z,3.6846
2023-05-06T10:18:02.825Z,3.3000
2023-05-06T10:19:05.766Z,3.0923
2023-05-06T10:20:08.699Z,3.4154
2023-05-06T10:21:11.739Z,3.3615
2023-05-06T10:22:14.618Z,2.3846
2023-05-06T10:23:17.547Z,2.9923
2023-05-06T10:24:20.592Z,4.0692
2023-05-06T10:25:23.457Z,3.0154
2023-05-06T10:26:26.397Z,2.7077
2023-05-06T10:27:29.366Z,3.0154
2023-05-06T10:28:32.320Z,2.5385
2023-05-06T10:29:35.396Z,3.0231
2023-05-06T10:30:38.195Z,2.6077
2023-05-06T10:31:41.202Z,3.7538
2023-05-06T10:32:44.209Z,3.3308
2023-05-06T10:33:47.146Z,2.8615
2023-05-06T10:34:50.031Z,4.9385
2023-05-06T10:35:52.986Z,3.6923
2023-05-06T10:36:55.922Z,4.0615
2023-05-06T10:37:58.868Z,3.9692
2023-05-06T10:39:01.824Z,3.5154
2023-05-06T10:40:04.786Z,3.1308
2023-05-06T10:41:07.727Z,3.5308
2023-05-06T10:42:10.655Z,2.8538
2023-05-06T10:43:13.643Z,4.4077
2023-05-06T10:44:16.724Z,4.2615
2023-05-06T10:45:19.526Z,4.6077
2023-05-06T10:46:22.537Z,5.4385
2023-05-06T10:47:25.439Z,5.4615
2023-05-06T10:48:28.469Z,3.4308
2023-05-06T10:49:31.348Z,3.4077
2023-05-06T10:50:34.309Z,3.3000
2023-05-06T10:51:37.243Z,3.3846
2023-05-06T10:52:40.186Z,2.8846
2023-05-06T10:53:43.177Z,3.7692
2023-05-06T10:54:46.093Z,3.0923
2023-05-06T10:55:49.036Z,4.9846
2023-05-06T10:56:52.006Z,3.1846
2023-05-06T10:57:54.931Z,2.9615
2023-05-06T10:58:57.893Z,2.5846
2023-05-06T11:00:00.865Z,3.5077
2023-05-06T11:01:03.837Z,3.7231
2023-05-06T11:02:06.780Z,3.2154
2023-05-06T11:03:09.832Z,3.1615
2023-05-06T11:04:12.667Z,3.7000
2023-05-06T11:05:15.571Z,4.5692
2023-05-06T11:06:18.584Z,7.0308
2023-05-06T11:07:21.503Z,7.2385
2023-05-06T11:08:24.470Z,8.8692
2023-05-06T11:09:27.389Z,8.3692
2023-05-06T11:10:30.363Z,3.6462
2023-05-06T11:11:33.370Z,2.9154
2023-05-06T11:12:36.326Z,4.1692
2023-05-06T11:13:39.226Z,3.0077
2023-05-06T11:14:42.200Z,3.2154
2023-05-06T11:15:45.152Z,3.1615
2023-05-06T11:16:48.126Z,3.4538
2023-05-06T11:17:51.091Z,3.3615
2023-05-06T11:18:54.029Z,3.1154
2023-05-06T11:19:57.040Z,2.7692
2023-05-06T11:20:59.948Z,3.2077
2023-05-06T11:22:02.912Z,4.4077
2023-05-06T11:23:05.847Z,3.4692
2023-05-06T11:24:08.816Z,3.3231
2023-05-06T11:25:11.771Z,4.0000
2023-05-06T11:26:14.733Z,3.7231
2023-05-06T11:27:17.673Z,2.9077
2023-05-06T11:28:20.589Z,3.2231
2023-05-06T11:29:23.550Z,3.7692
2023-05-06T11:30:26.496Z,3.0077
2023-05-06T11:31:29.609Z,3.0538
2023-05-06T11:32:32.855Z,3.0308
2023-05-06T11:33:35.346Z,3.0462
2023-05-06T11:34:38.343Z,3.1385
2023-05-06T11:35:41.317Z,3.9385
2023-05-06T11:36:44.254Z,3.3846
2023-05-06T11:37:47.242Z,2.4154
2023-05-06T11:38:50.353Z,3.3846
2023-05-06T11:39:53.146Z,22.2923
2023-05-06T11:40:56.067Z,40.4000
2023-05-06T11:41:58.996Z,5.5923
2023-05-06T11:43:01.952Z,8.1154
2023-05-06T11:44:04.931Z,4.6077
2023-05-06T11:45:07.892Z,6.1000
2023-05-06T11:46:10.837Z,5.9923
2023-05-06T11:47:13.874Z,5.9923
2023-05-06T11:48:16.872Z,5.8923
2023-05-06T11:49:19.862Z,3.9615
2023-05-06T11:50:22.830Z,5.0000
2023-05-06T11:51:25.792Z,3.7000
2023-05-06T11:52:28.806Z,2.9000
2023-05-06T11:53:31.630Z,3.3923
2023-05-06T11:54:34.568Z,3.7769
2023-05-06T11:55:37.525Z,4.2000
2023-05-06T11:56:40.489Z,2.9308
2023-05-06T11:57:43.467Z,3.1692
2023-05-06T11:58:46.502Z,4.5077
2023-05-06T11:59:49.372Z,8.4462
2023-05-06T12:00:52.331Z,7.3154
2023-05-06T12:01:55.277Z,9.6769
2023-05-06T12:02:58.283Z,11.7846
2023-05-06T12:04:01.250Z,5.3846
2023-05-06T12:05:04.186Z,9.8385
2023-05-06T12:06:07.085Z,7.6308
2023-05-06T12:07:10.136Z,9.9231
2023-05-06T12:08:23.577Z,9.6846
2023-05-06T12:09:15.962Z,4.1462
2023-05-06T12:10:18.921Z,7.4462
2023-05-06T12:11:21.874Z,4.3308
2023-05-06T12:12:24.895Z,7.4231
2023-05-06T12:13:27.811Z,9.6077
2023-05-06T12:14:30.766Z,5.9000
2023-05-06T12:15:33.724Z,4.3385
2023-05-06T12:16:36.800Z,5.6000
2023-05-06T12:17:39.664Z,5.7692
2023-05-06T12:18:42.659Z,19.6846
2023-05-06T12:19:45.562Z,20.5692
2023-05-06T12:20:48.498Z,18.6462
2023-05-06T12:21:51.506Z,8.5846
2023-05-06T12:22:55.549Z,15.0692
2023-05-06T12:23:57.426Z,15.2846
2023-05-06T12:25:00.309Z,6.1154
2023-05-06T12:26:03.296Z,5.4462
2023-05-06T12:27:06.304Z,11.4538
2023-05-06T12:28:09.183Z,14.4385
2023-05-06T12:29:12.132Z,11.4077
2023-05-06T12:30:15.113Z,7.1462
2023-05-06T12:31:18.056Z,5.2231
2023-05-06T12:32:20.984Z,6.9615
2023-05-06T12:33:23.965Z,8.7615
2023-05-06T12:34:26.911Z,8.3846
2023-05-06T12:35:29.850Z,9.6385
2023-05-06T12:36:32.821Z,8.3923
2023-05-06T12:37:35.749Z,6.9923
2023-05-06T12:38:38.770Z,7.5231
2023-05-06T12:39:41.662Z,3.2000
2023-05-06T12:40:44.701Z,2.7923
2023-05-06T12:41:47.579Z,3.2538
2023-05-06T12:42:50.562Z,3.3231
2023-05-06T12:43:53.464Z,4.1923
2023-05-06T12:44:56.406Z,4.5308
2023-05-06T12:45:59.441Z,6.0154
2023-05-06T12:47:02.365Z,7.8692
2023-05-06T12:48:05.272Z,9.8923
2023-05-06T12:49:08.315Z,7.4308
2023-05-06T12:50:11.459Z,7.1308
2023-05-06T12:51:14.159Z,7.4462
2023-05-06T12:52:17.074Z,6.8077
2023-05-06T12:53:20.034Z,6.0923
2023-05-06T12:54:23.008Z,7.1308
2023-05-06T12:55:26.034Z,5.9692
2023-05-06T12:56:28.958Z,6.1308
2023-05-06T12:57:31.916Z,6.1000
2023-05-06T12:58:34.780Z,6.1538
2023-05-06T12:59:37.752Z,4.0615
2023-05-06T13:00:40.783Z,4.0538
2023-05-06T13:01:43.646Z,6.3231
2023-05-06T13:02:46.744Z,5.2692
2023-05-06T13:03:49.660Z,5.8923
2023-05-06T13:04:52.519Z,5.4154